ADDS METAR Data INFO
IDs: Format: Raw Decoded Include TAF

Data at: 1229 UTC 20 Jul 2017

METAR for:PAOU (Nelson Lagoon Arpt, AK, US)
Text:PAOU 201225Z AUTO 30012KT 6SM BR BKN006 BKN011 OVC027 11/11 A2977 RMK AO2 RAB03E14 P0000
Temperature: 11.0°C ( 52°F)
Dewpoint: 11.0°C ( 52°F) [RH = 100%]
Pressure (altimeter):29.77 inches Hg (1008.2 mb)
Winds:from the WNW (300 degrees) at 14 MPH (12 knots; 6.2 m/s)
Visibility: 6 sm ( 10 km)
Ceiling:600 feet AGL
Clouds: broken clouds at 600 feet AGL, broken clouds at 1100 feet AGL, overcast cloud deck at 2700 feet AGL
Weather:BR (mist)
QC Flag:automated observation with no human augmentation
Text:PAOU 201217Z AUTO 31012KT 7SM SCT008 BKN011 OVC027 11/11 A2977 RMK AO2 RAB03E14 P0000
Temperature: 11.0°C ( 52°F)
Dewpoint: 11.0°C ( 52°F) [RH = 100%]
Pressure (altimeter):29.77 inches Hg (1008.2 mb)
Winds:from the NW (310 degrees) at 14 MPH (12 knots; 6.2 m/s)
Visibility: 7 sm ( 11 km)
Ceiling:1100 feet AGL
Clouds: scattered clouds at 800 feet AGL, broken clouds at 1100 feet AGL, overcast cloud deck at 2700 feet AGL
QC Flag:automated observation with no human augmentation
Text:PAOU 201156Z AUTO 32013KT 9SM BKN013 BKN029 OVC055 11/11 A2977 RMK AO2 SLP081 60000 70008 T01060106 10106 20100 51011
Temperature: 10.6°C ( 51°F)
Dewpoint: 10.6°C ( 51°F) [RH = 100%]
Pressure (altimeter):29.77 inches Hg (1008.2 mb) [Sea level pressure: 1008.1 mb]
Winds:from the NW (320 degrees) at 15 MPH (13 knots; 6.7 m/s)
Visibility: 9 sm ( 14 km)
Ceiling:1300 feet AGL
Clouds: broken clouds at 1300 feet AGL, broken clouds at 2900 feet AGL, overcast cloud deck at 5500 feet AGL
QC Flag:automated observation with no human augmentation
Text:PAOU 201146Z AUTO 33014KT 7SM BKN011 BKN027 OVC060 11/11 A2977 RMK AO2
Temperature: 11.0°C ( 52°F)
Dewpoint: 11.0°C ( 52°F) [RH = 100%]
Pressure (altimeter):29.77 inches Hg (1008.2 mb)
Winds:from the NNW (330 degrees) at 16 MPH (14 knots; 7.2 m/s)
Visibility: 7 sm ( 11 km)
Ceiling:1100 feet AGL
Clouds: broken clouds at 1100 feet AGL, broken clouds at 2700 feet AGL, overcast cloud deck at 6000 feet AGL
QC Flag:automated observation with no human augmentation
Text:PAOU 201135Z AUTO 33013KT 8SM SCT009 BKN055 OVC070 11/11 A2977 RMK AO2
Temperature: 11.0°C ( 52°F)
Dewpoint: 11.0°C ( 52°F) [RH = 100%]
Pressure (altimeter):29.77 inches Hg (1008.2 mb)
Winds:from the NNW (330 degrees) at 15 MPH (13 knots; 6.7 m/s)
Visibility: 8 sm ( 13 km)
Ceiling:5500 feet AGL
Clouds: scattered clouds at 900 feet AGL, broken clouds at 5500 feet AGL, overcast cloud deck at 7000 feet AGL
QC Flag:automated observation with no human augmentation
Text:PAOU 201056Z AUTO 34015KT 9SM OVC007 11/11 A2976 RMK AO2 RAB0959E23 CIG 005V009 SLP077 P0000 T01060106
Temperature: 10.6°C ( 51°F)
Dewpoint: 10.6°C ( 51°F) [RH = 100%]
Pressure (altimeter):29.76 inches Hg (1007.9 mb) [Sea level pressure: 1007.7 mb]
Winds:from the NNW (340 degrees) at 17 MPH (15 knots; 7.7 m/s)
Visibility: 9 sm ( 14 km)
Ceiling:700 feet AGL
Clouds: overcast cloud deck at 700 feet AGL
QC Flag:automated observation with no human augmentation
Text:PAOU 201023Z AUTO 33011KT 5SM BR OVC005 10/10 A2976 RMK AO2 RAB0959E23 CIG 003V009 P0000
Temperature: 10.0°C ( 50°F)
Dewpoint: 10.0°C ( 50°F) [RH = 100%]
Pressure (altimeter):29.76 inches Hg (1007.9 mb)
Winds:from the NNW (330 degrees) at 13 MPH (11 knots; 5.7 m/s)
Visibility: 5 sm ( 8 km)
Ceiling:500 feet AGL
Clouds: overcast cloud deck at 500 feet AGL
Weather:BR (mist)
QC Flag:automated observation with no human augmentation
Text:PAOU 201006Z AUTO 33012KT 2SM -RA BR OVC005 10/10 A2975 RMK AO2 RAB0959 P0000
Temperature: 10.0°C ( 50°F)
Dewpoint: 10.0°C ( 50°F) [RH = 100%]
Pressure (altimeter):29.75 inches Hg (1007.5 mb)
Winds:from the NNW (330 degrees) at 14 MPH (12 knots; 6.2 m/s)
Visibility: 2.00 sm ( 3.22 km)
Ceiling:500 feet AGL
Clouds: overcast cloud deck at 500 feet AGL
Weather:-RA BR (light rain, mist)
QC Flag:automated observation with no human augmentation
Text:PAOU 200956Z AUTO 34014KT 4SM BR OVC005 10/10 A2975 RMK AO2 RAE42 SLP075 P0000 T01000100
Temperature: 10.0°C ( 50°F)
Dewpoint: 10.0°C ( 50°F) [RH = 100%]
Pressure (altimeter):29.75 inches Hg (1007.5 mb) [Sea level pressure: 1007.5 mb]
Winds:from the NNW (340 degrees) at 16 MPH (14 knots; 7.2 m/s)
Visibility: 4 sm ( 6 km)
Ceiling:500 feet AGL
Clouds: overcast cloud deck at 500 feet AGL
Weather:BR (mist)
QC Flag:automated observation with no human augmentation
Text:PAOU 200918Z AUTO 33016KT 4SM -RA BR OVC003 10/10 A2974 RMK AO2 P0000
Temperature: 10.0°C ( 50°F)
Dewpoint: 10.0°C ( 50°F) [RH = 100%]
Pressure (altimeter):29.74 inches Hg (1007.2 mb)
Winds:from the NNW (330 degrees) at 18 MPH (16 knots; 8.2 m/s)
Visibility: 4 sm ( 6 km)
Ceiling:300 feet AGL
Clouds: overcast cloud deck at 300 feet AGL
Weather:-RA BR (light rain, mist)
QC Flag:automated observation with no human augmentation
Text:PAOU 200856Z AUTO 31015KT 2 1/2SM -RA BR OVC003 11/11 A2974 RMK AO2 SLP070 P0000 60000 T01060106 53001
Temperature: 10.6°C ( 51°F)
Dewpoint: 10.6°C ( 51°F) [RH = 100%]
Pressure (altimeter):29.74 inches Hg (1007.2 mb) [Sea level pressure: 1007.0 mb]
Winds:from the NW (310 degrees) at 17 MPH (15 knots; 7.7 m/s)
Visibility: 2.50 sm ( 4.02 km)
Ceiling:300 feet AGL
Clouds: overcast cloud deck at 300 feet AGL
Weather:-RA BR (light rain, mist)
QC Flag:automated observation with no human augmentation
Text:PAOU 200820Z AUTO 29015KT 2SM -RA BR OVC003 10/10 A2973 RMK AO2 CIG 002V006 P0000
Temperature: 10.0°C ( 50°F)
Dewpoint: 10.0°C ( 50°F) [RH = 100%]
Pressure (altimeter):29.73 inches Hg (1006.9 mb)
Winds:from the WNW (290 degrees) at 17 MPH (15 knots; 7.7 m/s)
Visibility: 2.00 sm ( 3.22 km)
Ceiling:300 feet AGL
Clouds: overcast cloud deck at 300 feet AGL
Weather:-RA BR (light rain, mist)
QC Flag:automated observation with no human augmentation
Text:PAOU 200800Z AUTO 29016KT 1 1/4SM -RA BR OVC003 10/10 A2973 RMK AO2 P0000
Temperature: 10.0°C ( 50°F)
Dewpoint: 10.0°C ( 50°F) [RH = 100%]
Pressure (altimeter):29.73 inches Hg (1006.9 mb)
Winds:from the WNW (290 degrees) at 18 MPH (16 knots; 8.2 m/s)
Visibility: 1.25 sm ( 2.01 km)
Ceiling:300 feet AGL
Clouds: overcast cloud deck at 300 feet AGL
Weather:-RA BR (light rain, mist)
QC Flag:automated observation with no human augmentation
Text:PAOU 200752Z AUTO 28017KT 1SM -RA BR OVC003 10/10 A2973 RMK AO2 RAE00B20 SLP066 P0000 T01000100 401110089
Temperature: 10.0°C ( 50°F)
Dewpoint: 10.0°C ( 50°F) [RH = 100%]
Pressure (altimeter):29.73 inches Hg (1006.9 mb) [Sea level pressure: 1006.6 mb]
Winds:from the W (280 degrees) at 20 MPH (17 knots; 8.7 m/s)
Visibility: 1.00 sm ( 1.61 km)
Ceiling:300 feet AGL
Clouds: overcast cloud deck at 300 feet AGL
Weather:-RA BR (light rain, mist)
QC Flag:automated observation with no human augmentation
Text:PAOU 200751Z AUTO 28019KT 1SM -RA BR OVC003 10/10 A2973 RMK AO2 RAE00B20 P0000 401110089
Temperature: 10.0°C ( 50°F)
Dewpoint: 10.0°C ( 50°F) [RH = 100%]
Pressure (altimeter):29.73 inches Hg (1006.9 mb)
Winds:from the W (280 degrees) at 22 MPH (19 knots; 9.8 m/s)
Visibility: 1.00 sm ( 1.61 km)
Ceiling:300 feet AGL
Clouds: overcast cloud deck at 300 feet AGL
Weather:-RA BR (light rain, mist)
QC Flag:automated observation with no human augmentation
Text:PAOU 200732Z AUTO 28019KT 1/2SM -RA FG OVC003 10/10 A2973 RMK AO2 RAE00B20 P0000
Temperature: 10.0°C ( 50°F)
Dewpoint: 10.0°C ( 50°F) [RH = 100%]
Pressure (altimeter):29.73 inches Hg (1006.9 mb)
Winds:from the W (280 degrees) at 22 MPH (19 knots; 9.8 m/s)
Visibility: 0.50 sm ( 0.80 km)
Ceiling:300 feet AGL
Clouds: overcast cloud deck at 300 feet AGL
Weather:-RA FG (light rain, fog)
QC Flag:automated observation with no human augmentation
Text:PAOU 200712Z AUTO 28019KT 3/4SM BR OVC003 10/10 A2973 RMK AO2 RAE00 P0000
Temperature: 10.0°C ( 50°F)
Dewpoint: 10.0°C ( 50°F) [RH = 100%]
Pressure (altimeter):29.73 inches Hg (1006.9 mb)
Winds:from the W (280 degrees) at 22 MPH (19 knots; 9.8 m/s)
Visibility: 0.75 sm ( 1.21 km)
Ceiling:300 feet AGL
Clouds: overcast cloud deck at 300 feet AGL
Weather:BR (mist)
QC Flag:automated observation with no human augmentation
Text:PAOU 200656Z AUTO 28019G26KT 1 3/4SM -RA BR OVC003 10/10 A2973 RMK AO2 PK WND 28026/0648 SLP066 P0000 T01000100
Temperature: 10.0°C ( 50°F)
Dewpoint: 10.0°C ( 50°F) [RH = 100%]
Pressure (altimeter):29.73 inches Hg (1006.9 mb) [Sea level pressure: 1006.6 mb]
Winds:from the W (280 degrees) at 22 MPH (19 knots; 9.8 m/s) gusting to 30 MPH (26 knots; 13.4 m/s)
Visibility: 1.75 sm ( 2.82 km)
Ceiling:300 feet AGL
Clouds: overcast cloud deck at 300 feet AGL
Weather:-RA BR (light rain, mist)
QC Flag:automated observation with no human augmentation
Text:PAOU 200638Z AUTO 28020KT 1 1/4SM -RA BR OVC003 10/10 A2973 RMK AO2 P0000
Temperature: 10.0°C ( 50°F)
Dewpoint: 10.0°C ( 50°F) [RH = 100%]
Pressure (altimeter):29.73 inches Hg (1006.9 mb)
Winds:from the W (280 degrees) at 23 MPH (20 knots; 10.3 m/s)
Visibility: 1.25 sm ( 2.01 km)
Ceiling:300 feet AGL
Clouds: overcast cloud deck at 300 feet AGL
Weather:-RA BR (light rain, mist)
QC Flag:automated observation with no human augmentation
Text:PAOU 200631Z AUTO 27020KT 2SM -RA BR OVC003 10/10 A2973 RMK AO2 P0000
Temperature: 10.0°C ( 50°F)
Dewpoint: 10.0°C ( 50°F) [RH = 100%]
Pressure (altimeter):29.73 inches Hg (1006.9 mb)
Winds:from the W (270 degrees) at 23 MPH (20 knots; 10.3 m/s)
Visibility: 2.00 sm ( 3.22 km)
Ceiling:300 feet AGL
Clouds: overcast cloud deck at 300 feet AGL
Weather:-RA BR (light rain, mist)
QC Flag:automated observation with no human augmentation

TAF for:PAOU (Nelson Lagoon Arpt, AK, US)
Text:No data found